Time;durP1;ratioP1;P1;durP2;ratioP2;P2;SDS_P1;SDS_P2;PMS_P1;PMS_P2;Temp;Humidity;BMP_temperature;BMP_pressure;BME280_temperature;BME280_humidity;BME280_pressure;Samples;Min_cycle;Max_cycle;Signal;HPM_P1;HPM_P2
2022/09/12 00:00:18;;;;;;;;;;;19.30;99.90;;;;;;4592583;19;19919;-25
2022/09/12 00:02:09;;;;;;;;;;;19.30;99.90;;;;;;4593629;19;19915;-24
2022/09/12 00:03:40;;;;;;;;;;;19.30;99.90;;;;;;4593454;19;20265;-26
2022/09/12 00:05:11;;;;;;;;;;;19.30;99.90;;;;;;4593721;19;19930;-26
2022/09/12 00:06:43;;;;;;;;;;;19.30;99.90;;;;;;4594650;19;19919;-24
2022/09/12 00:08:14;;;;;;;;;;;19.30;99.90;;;;;;4592044;19;19936;-26
2022/09/12 00:09:45;;;;;;;;;;;19.30;99.90;;;;;;4593208;19;19923;-25
2022/09/12 00:11:16;;;;;;;;;;;19.30;99.90;;;;;;4593119;19;19935;-25
2022/09/12 00:12:47;;;;;;;;;;;19.30;99.90;;;;;;4593819;19;19934;-24
2022/09/12 00:14:18;;;;;;;;;;;19.30;99.90;;;;;;4593155;19;19923;-25
2022/09/12 00:15:49;;;;;;;;;;;19.40;99.90;;;;;;4593079;19;19919;-25
2022/09/12 00:17:20;;;;;;;;;;;19.30;99.90;;;;;;4593099;19;19915;-25
2022/09/12 00:18:52;;;;;;;;;;;19.40;99.90;;;;;;4593759;19;20042;-25
2022/09/12 00:20:23;;;;;;;;;;;19.40;99.90;;;;;;4593037;19;19915;-25
2022/09/12 00:21:54;;;;;;;;;;;19.40;99.90;;;;;;4593189;19;19923;-27
2022/09/12 00:23:25;;;;;;;;;;;19.40;99.90;;;;;;4593549;19;19915;-27
2022/09/12 00:24:56;;;;;;;;;;;19.30;99.90;;;;;;4593003;19;19922;-25
2022/09/12 00:26:27;;;;;;;;;;;19.40;99.90;;;;;;4593113;19;19914;-24
2022/09/12 00:27:58;;;;;;;;;;;19.40;99.90;;;;;;4592628;19;19918;-25
2022/09/12 00:29:30;;;;;;;;;;;19.40;99.90;;;;;;4593444;19;19926;-25
2022/09/12 00:31:05;;;;;;;;;;;19.30;99.90;;;;;;4592980;19;20589;-26
2022/09/12 00:32:36;;;;;;;;;;;19.40;99.90;;;;;;4592914;19;19926;-24
2022/09/12 00:34:07;;;;;;;;;;;19.40;99.90;;;;;;4591925;19;19986;-26
2022/09/12 00:35:45;;;;;;;;;;;19.40;99.90;;;;;;4592848;19;20002;-25
2022/09/12 00:37:17;;;;;;;;;;;19.40;99.90;;;;;;4592929;19;20474;-27
2022/09/12 00:38:48;;;;;;;;;;;19.40;99.90;;;;;;4590314;19;19918;-27
2022/09/12 00:40:19;;;;;;;;;;;19.40;99.90;;;;;;4591991;19;19915;-25
2022/09/12 00:41:49;;;;;;;;;;;19.40;99.90;;;;;;4593260;19;20245;-25
2022/09/12 00:43:33;;;;;;;;;;;19.40;99.90;;;;;;4592651;19;19919;-25
2022/09/12 00:45:04;;;;;;;;;;;19.40;99.90;;;;;;4592745;19;19919;-26
2022/09/12 00:46:35;;;;;;;;;;;19.40;99.90;;;;;;4592357;19;19970;-25
2022/09/12 00:48:07;;;;;;;;;;;19.40;99.90;;;;;;4591845;19;19918;-27
2022/09/12 00:49:45;;;;;;;;;;;19.30;99.90;;;;;;4591351;19;19915;-24
2022/09/12 00:51:16;;;;;;;;;;;19.30;99.90;;;;;;4592413;19;20257;-26
2022/09/12 00:52:48;;;;;;;;;;;19.40;99.90;;;;;;4591175;19;20336;-27
2022/09/12 00:54:21;;;;;;;;;;;19.40;99.90;;;;;;4592365;19;19925;-24
2022/09/12 00:55:52;;;;;;;;;;;19.30;99.90;;;;;;4591152;19;19935;-25
2022/09/12 00:57:24;;;;;;;;;;;19.40;99.90;;;;;;4590420;19;19923;-27
2022/09/12 00:58:57;;;;;;;;;;;19.40;99.90;;;;;;4591817;19;19931;-27
2022/09/12 01:00:28;;;;;;;;;;;19.30;99.90;;;;;;4591538;19;20002;-26
2022/09/12 01:01:59;;;;;;;;;;;19.30;99.90;;;;;;4591958;19;19918;-27
2022/09/12 01:03:30;;;;;;;;;;;19.40;99.90;;;;;;4590471;19;19982;-24
2022/09/12 01:05:01;;;;;;;;;;;19.40;99.90;;;;;;4592986;19;20262;-24
2022/09/12 01:06:34;;;;;;;;;;;19.40;99.90;;;;;;4590940;19;19914;-25
2022/09/12 01:08:05;;;;;;;;;;;19.40;99.90;;;;;;4589930;19;19919;-25
2022/09/12 01:09:36;;;;;;;;;;;19.40;99.90;;;;;;4590124;19;20006;-25
2022/09/12 01:11:07;;;;;;;;;;;19.40;99.90;;;;;;4592316;19;19915;-25
2022/09/12 01:12:39;;;;;;;;;;;19.40;99.90;;;;;;4590840;19;20396;-25
2022/09/12 01:14:11;;;;;;;;;;;19.40;99.90;;;;;;4590805;19;19919;-25
2022/09/12 01:15:44;;;;;;;;;;;19.40;99.90;;;;;;4591167;19;19918;-25
2022/09/12 01:17:15;;;;;;;;;;;19.40;99.90;;;;;;4592135;19;19930;-25
2022/09/12 01:18:52;;;;;;;;;;;19.30;99.90;;;;;;4590926;19;19918;-25
2022/09/12 01:20:27;;;;;;;;;;;19.30;99.90;;;;;;4591508;19;20364;-25
2022/09/12 01:22:16;;;;;;;;;;;19.40;99.90;;;;;;4592029;19;19923;-25
2022/09/12 01:23:50;;;;;;;;;;;19.40;99.90;;;;;;4592404;19;19939;-25
2022/09/12 01:25:21;;;;;;;;;;;19.40;99.90;;;;;;4591681;19;19922;-25
2022/09/12 01:27:10;;;;;;;;;;;19.40;99.90;;;;;;4591685;19;19923;-25
2022/09/12 01:28:56;;;;;;;;;;;19.40;99.90;;;;;;4590403;19;19918;-25
2022/09/12 01:30:32;;;;;;;;;;;19.30;99.90;;;;;;4591636;19;19921;-25
2022/09/12 01:32:13;;;;;;;;;;;19.40;99.90;;;;;;4592340;19;20433;-25
2022/09/12 01:34:02;;;;;;;;;;;19.40;99.90;;;;;;4591805;19;19922;-26
2022/09/12 01:35:42;;;;;;;;;;;19.30;99.90;;;;;;4591552;19;19919;-25
2022/09/12 01:37:25;;;;;;;;;;;19.40;99.90;;;;;;4591344;19;19930;-25
2022/09/12 01:39:00;;;;;;;;;;;19.30;99.90;;;;;;4590460;19;19923;-25
2022/09/12 01:40:33;;;;;;;;;;;19.30;99.90;;;;;;4590723;19;19970;-24
2022/09/12 01:42:09;;;;;;;;;;;19.30;99.90;;;;;;4590643;19;19941;-25
2022/09/12 01:43:47;;;;;;;;;;;19.30;99.90;;;;;;4591117;19;19926;-27
2022/09/12 01:45:24;;;;;;;;;;;19.30;99.90;;;;;;4591521;19;19933;-25
2022/09/12 01:46:57;;;;;;;;;;;19.30;99.90;;;;;;4589882;19;19926;-27
2022/09/12 01:48:35;;;;;;;;;;;19.30;99.90;;;;;;4589378;19;19922;-27
2022/09/12 01:50:12;;;;;;;;;;;19.40;99.90;;;;;;4590305;19;19922;-25
2022/09/12 01:51:47;;;;;;;;;;;19.30;99.90;;;;;;4591177;19;19919;-27
2022/09/12 01:53:47;;;;;;;;;;;19.30;99.90;;;;;;4590430;19;19915;-25
2022/09/12 01:55:23;;;;;;;;;;;19.30;99.90;;;;;;4590302;19;19927;-25
2022/09/12 01:56:56;;;;;;;;;;;19.30;99.90;;;;;;4589814;19;19920;-25
2022/09/12 01:58:29;;;;;;;;;;;19.30;99.90;;;;;;4590750;19;19926;-27
2022/09/12 02:00:03;;;;;;;;;;;19.30;99.90;;;;;;4589755;19;19915;-25
2022/09/12 02:01:35;;;;;;;;;;;19.30;99.90;;;;;;4590072;19;19918;-27
2022/09/12 02:03:09;;;;;;;;;;;19.30;99.90;;;;;;4590798;19;20246;-25
2022/09/12 02:04:47;;;;;;;;;;;19.30;99.90;;;;;;4590860;19;19915;-25
2022/09/12 02:06:20;;;;;;;;;;;19.30;99.90;;;;;;4591015;19;19911;-24
2022/09/12 02:08:23;;;;;;;;;;;19.30;99.90;;;;;;4586870;19;19943;-25
2022/09/12 02:10:17;;;;;;;;;;;19.30;99.90;;;;;;4588677;19;20013;-24
2022/09/12 02:11:48;;;;;;;;;;;19.30;99.90;;;;;;4588588;19;19926;-26
2022/09/12 02:13:20;;;;;;;;;;;19.30;99.90;;;;;;4588661;19;19914;-27
2022/09/12 02:14:52;;;;;;;;;;;19.30;99.90;;;;;;4588439;19;19919;-26
2022/09/12 02:16:43;;;;;;;;;;;19.30;99.90;;;;;;4588556;19;19922;-27
2022/09/12 02:18:16;;;;;;;;;;;19.30;99.90;;;;;;4588820;19;19919;-26
2022/09/12 02:19:50;;;;;;;;;;;19.40;99.90;;;;;;4588932;19;20371;-25
2022/09/12 02:21:21;;;;;;;;;;;19.40;99.90;;;;;;4588346;19;19923;-24
2022/09/12 02:22:52;;;;;;;;;;;19.30;99.90;;;;;;4588594;19;20419;-26
2022/09/12 02:24:25;;;;;;;;;;;19.30;99.90;;;;;;4588607;19;19911;-25
2022/09/12 02:25:58;;;;;;;;;;;19.40;99.90;;;;;;4588568;19;19919;-24
2022/09/12 02:27:29;;;;;;;;;;;19.30;99.90;;;;;;4588108;19;19918;-25
2022/09/12 02:29:00;;;;;;;;;;;19.40;99.90;;;;;;4588434;19;19973;-25
2022/09/12 02:30:33;;;;;;;;;;;19.40;99.90;;;;;;4588400;19;20367;-26
2022/09/12 02:32:07;;;;;;;;;;;19.40;99.90;;;;;;4588380;19;19920;-27
2022/09/12 02:33:38;;;;;;;;;;;19.40;99.90;;;;;;4588063;19;20005;-24
2022/09/12 02:35:18;;;;;;;;;;;19.40;99.90;;;;;;4588355;19;19923;-25
2022/09/12 02:36:53;;;;;;;;;;;19.40;99.90;;;;;;4589712;19;19948;-25
2022/09/12 02:38:30;;;;;;;;;;;19.30;99.90;;;;;;4588666;19;19939;-27
2022/09/12 02:40:01;;;;;;;;;;;19.40;99.90;;;;;;4588027;19;20314;-25
2022/09/12 02:41:32;;;;;;;;;;;19.40;99.90;;;;;;4588137;19;19964;-26
2022/09/12 02:43:04;;;;;;;;;;;19.40;99.90;;;;;;4588423;19;20328;-25
2022/09/12 02:44:35;;;;;;;;;;;19.40;99.90;;;;;;4588097;19;20001;-26
2022/09/12 02:46:07;;;;;;;;;;;19.40;99.90;;;;;;4589238;19;19919;-25
2022/09/12 02:47:48;;;;;;;;;;;19.30;99.90;;;;;;4588766;19;20321;-26
2022/09/12 02:49:19;;;;;;;;;;;19.30;99.90;;;;;;4589060;19;19932;-25
2022/09/12 02:50:50;;;;;;;;;;;19.30;99.90;;;;;;4589817;19;20344;-25
2022/09/12 02:52:21;;;;;;;;;;;19.30;99.90;;;;;;4588775;19;19907;-25
2022/09/12 02:53:52;;;;;;;;;;;19.30;99.90;;;;;;4588997;19;19919;-25
2022/09/12 02:55:24;;;;;;;;;;;19.30;99.90;;;;;;4589307;19;19926;-25
2022/09/12 02:56:55;;;;;;;;;;;19.40;99.90;;;;;;4589634;19;19939;-27
2022/09/12 02:58:27;;;;;;;;;;;19.30;99.90;;;;;;4588786;19;19922;-25
2022/09/12 02:59:59;;;;;;;;;;;19.30;99.90;;;;;;4589196;19;19974;-27
2022/09/12 03:01:30;;;;;;;;;;;19.40;99.90;;;;;;4588981;19;19915;-28
2022/09/12 03:03:20;;;;;;;;;;;19.40;99.90;;;;;;4589576;19;20258;-27
2022/09/12 03:04:51;;;;;;;;;;;19.40;99.90;;;;;;4589828;19;19919;-26
2022/09/12 03:06:25;;;;;;;;;;;19.40;99.90;;;;;;4589975;19;20399;-26
2022/09/12 03:08:05;;;;;;;;;;;19.40;99.90;;;;;;4589696;19;19918;-24
2022/09/12 03:09:43;;;;;;;;;;;19.40;99.90;;;;;;4589988;19;19975;-25
2022/09/12 03:11:15;;;;;;;;;;;19.40;99.90;;;;;;4589666;19;19918;-25
2022/09/12 03:12:56;;;;;;;;;;;19.30;99.90;;;;;;4589796;19;19929;-25
2022/09/12 03:14:29;;;;;;;;;;;19.30;99.90;;;;;;4588695;19;19918;-25
2022/09/12 03:16:19;;;;;;;;;;;19.40;99.90;;;;;;4589873;19;19922;-25
2022/09/12 03:17:50;;;;;;;;;;;19.40;99.90;;;;;;4589691;19;20337;-25
2022/09/12 03:19:26;;;;;;;;;;;19.30;99.90;;;;;;4591679;19;19931;-25
2022/09/12 03:21:01;;;;;;;;;;;19.30;99.90;;;;;;4593230;19;19942;-25
2022/09/12 03:22:34;;;;;;;;;;;19.40;99.90;;;;;;4594603;19;19915;-24
2022/09/12 03:24:23;;;;;;;;;;;19.40;99.90;;;;;;4594288;19;19927;-25
2022/09/12 03:26:03;;;;;;;;;;;19.40;99.90;;;;;;4594157;19;19934;-24
2022/09/12 03:27:35;;;;;;;;;;;19.30;99.90;;;;;;4592556;19;19922;-26
2022/09/12 03:29:06;;;;;;;;;;;19.30;99.90;;;;;;4593164;19;19914;-26
2022/09/12 03:30:40;;;;;;;;;;;19.30;99.90;;;;;;4593507;19;19911;-25
2022/09/12 03:32:11;;;;;;;;;;;19.30;99.90;;;;;;4593856;19;19927;-25
2022/09/12 03:33:43;;;;;;;;;;;19.30;99.90;;;;;;4594121;19;19919;-25
2022/09/12 03:35:15;;;;;;;;;;;19.30;99.90;;;;;;4594218;19;19923;-25
2022/09/12 03:36:46;;;;;;;;;;;19.30;99.90;;;;;;4593129;19;20253;-25
2022/09/12 03:38:17;;;;;;;;;;;19.30;99.90;;;;;;4593533;19;19917;-26
2022/09/12 03:39:48;;;;;;;;;;;19.30;99.90;;;;;;4593868;19;19946;-25
2022/09/12 03:41:19;;;;;;;;;;;19.30;99.90;;;;;;4593101;19;19919;-25
2022/09/12 03:42:50;;;;;;;;;;;19.30;99.90;;;;;;4592732;19;20250;-25
2022/09/12 03:44:21;;;;;;;;;;;19.30;99.90;;;;;;4592881;19;20332;-25
2022/09/12 03:45:52;;;;;;;;;;;19.30;99.90;;;;;;4592899;19;19936;-25
2022/09/12 03:47:23;;;;;;;;;;;19.30;99.90;;;;;;4592547;19;19915;-25
2022/09/12 03:48:54;;;;;;;;;;;19.30;99.90;;;;;;4593592;19;20294;-27
2022/09/12 03:50:25;;;;;;;;;;;19.30;99.90;;;;;;4594093;19;19923;-26
2022/09/12 03:51:57;;;;;;;;;;;19.30;99.90;;;;;;4592729;19;20344;-25
2022/09/12 03:53:28;;;;;;;;;;;19.30;99.90;;;;;;4593883;19;19929;-24
2022/09/12 03:54:58;;;;;;;;;;;19.30;99.90;;;;;;4593487;19;19928;-25
2022/09/12 03:56:29;;;;;;;;;;;19.30;99.90;;;;;;4593593;19;19919;-24
2022/09/12 03:58:01;;;;;;;;;;;19.30;99.90;;;;;;4594405;19;19922;-25
2022/09/12 03:59:32;;;;;;;;;;;19.30;99.90;;;;;;4593462;19;19914;-25
2022/09/12 04:01:11;;;;;;;;;;;19.40;99.90;;;;;;4593458;19;19919;-26
2022/09/12 04:02:42;;;;;;;;;;;19.30;99.90;;;;;;4594661;19;19914;-25
2022/09/12 04:04:14;;;;;;;;;;;19.40;99.90;;;;;;4593481;19;19915;-24
2022/09/12 04:05:46;;;;;;;;;;;19.40;99.90;;;;;;4594567;19;19925;-27
2022/09/12 04:07:17;;;;;;;;;;;19.40;99.90;;;;;;4593355;19;19952;-26
2022/09/12 04:08:49;;;;;;;;;;;19.40;99.90;;;;;;4591414;19;19934;-26
2022/09/12 04:10:22;;;;;;;;;;;19.40;99.90;;;;;;4592487;19;20576;-25
2022/09/12 04:11:53;;;;;;;;;;;19.40;99.90;;;;;;4592922;19;19915;-27
2022/09/12 04:13:24;;;;;;;;;;;19.40;99.90;;;;;;4593386;19;19923;-26
2022/09/12 04:14:55;;;;;;;;;;;19.40;99.90;;;;;;4593457;19;20234;-25
2022/09/12 04:16:26;;;;;;;;;;;19.40;99.90;;;;;;4593424;19;20312;-25
2022/09/12 04:17:57;;;;;;;;;;;19.40;99.90;;;;;;4593012;19;20017;-25
2022/09/12 04:19:28;;;;;;;;;;;19.40;99.90;;;;;;4593419;19;19923;-25
2022/09/12 04:21:03;;;;;;;;;;;19.30;99.90;;;;;;4593357;19;19928;-25
2022/09/12 04:22:34;;;;;;;;;;;19.40;99.90;;;;;;4593700;19;19918;-24
2022/09/12 04:24:05;;;;;;;;;;;19.30;99.90;;;;;;4592878;19;19919;-25
2022/09/12 04:25:36;;;;;;;;;;;19.40;99.90;;;;;;4592864;19;19914;-27
2022/09/12 04:27:07;;;;;;;;;;;19.40;99.90;;;;;;4593467;19;19914;-25
2022/09/12 04:28:38;;;;;;;;;;;19.40;99.90;;;;;;4591708;19;20267;-26
2022/09/12 04:30:09;;;;;;;;;;;19.30;99.90;;;;;;4593066;19;19923;-25
2022/09/12 04:31:40;;;;;;;;;;;19.30;99.90;;;;;;4590781;19;19919;-25
2022/09/12 04:33:11;;;;;;;;;;;19.40;99.90;;;;;;4592286;19;19921;-25
2022/09/12 04:34:43;;;;;;;;;;;19.40;99.90;;;;;;4591567;19;19919;-25
2022/09/12 04:36:15;;;;;;;;;;;19.30;99.90;;;;;;4592578;19;19919;-27
2022/09/12 04:37:46;;;;;;;;;;;19.30;99.90;;;;;;4593244;19;19915;-25
2022/09/12 04:39:17;;;;;;;;;;;19.40;99.90;;;;;;4593308;19;19922;-25
2022/09/12 04:40:48;;;;;;;;;;;19.40;99.90;;;;;;4592609;19;20263;-26
2022/09/12 04:42:19;;;;;;;;;;;19.40;99.90;;;;;;4592852;19;19935;-24
2022/09/12 04:43:51;;;;;;;;;;;19.40;99.90;;;;;;4593115;19;19925;-23
2022/09/12 04:45:22;;;;;;;;;;;19.30;99.90;;;;;;4594685;19;19921;-25
2022/09/12 04:46:53;;;;;;;;;;;19.30;99.90;;;;;;4592056;19;19918;-25
2022/09/12 04:48:25;;;;;;;;;;;19.30;99.90;;;;;;4588974;19;19915;-23
2022/09/12 04:49:56;;;;;;;;;;;19.30;99.90;;;;;;4592459;19;19923;-24
2022/09/12 04:51:29;;;;;;;;;;;19.30;99.90;;;;;;4591433;19;19939;-25
2022/09/12 04:53:01;;;;;;;;;;;19.20;99.90;;;;;;4589579;19;19922;-26
2022/09/12 04:54:32;;;;;;;;;;;19.30;99.90;;;;;;4589613;19;19978;-23
2022/09/12 04:56:04;;;;;;;;;;;19.20;99.90;;;;;;4593085;19;19938;-23
2022/09/12 04:57:36;;;;;;;;;;;19.30;99.90;;;;;;4589558;19;19918;-23
2022/09/12 04:59:07;;;;;;;;;;;19.30;99.90;;;;;;4590073;19;19922;-24
2022/09/12 05:00:41;;;;;;;;;;;19.30;99.90;;;;;;4590601;19;19932;-23
2022/09/12 05:02:12;;;;;;;;;;;19.30;99.90;;;;;;4591111;19;19930;-26
2022/09/12 05:03:43;;;;;;;;;;;19.40;99.90;;;;;;4591963;19;19919;-24
2022/09/12 05:05:16;;;;;;;;;;;19.40;99.90;;;;;;4591001;19;19931;-25
2022/09/12 05:06:47;;;;;;;;;;;19.40;99.90;;;;;;4592008;19;19926;-27
2022/09/12 05:08:18;;;;;;;;;;;19.40;99.90;;;;;;4591763;19;20297;-25
2022/09/12 05:09:49;;;;;;;;;;;19.40;99.90;;;;;;4590319;19;19919;-27
2022/09/12 05:11:21;;;;;;;;;;;19.40;99.90;;;;;;4590398;19;20612;-25
2022/09/12 05:12:52;;;;;;;;;;;19.40;99.90;;;;;;4590100;19;20011;-25
2022/09/12 05:14:23;;;;;;;;;;;19.40;99.90;;;;;;4589347;19;19942;-24
2022/09/12 05:15:55;;;;;;;;;;;19.40;99.90;;;;;;4589440;19;20340;-23
2022/09/12 05:17:27;;;;;;;;;;;19.40;99.90;;;;;;4592674;19;19919;-24
2022/09/12 05:18:59;;;;;;;;;;;19.40;99.90;;;;;;4592295;19;19918;-24
2022/09/12 05:20:30;;;;;;;;;;;19.40;99.90;;;;;;4592087;19;19923;-25
2022/09/12 05:22:01;;;;;;;;;;;19.40;99.90;;;;;;4591923;19;19926;-24
2022/09/12 05:23:32;;;;;;;;;;;19.40;99.90;;;;;;4591816;19;20417;-25
2022/09/12 05:25:04;;;;;;;;;;;19.40;99.90;;;;;;4591771;19;19927;-25
2022/09/12 05:26:35;;;;;;;;;;;19.40;99.90;;;;;;4590668;19;20337;-24
2022/09/12 05:28:06;;;;;;;;;;;19.40;99.90;;;;;;4590985;19;20290;-24
2022/09/12 05:29:37;;;;;;;;;;;19.40;99.90;;;;;;4590651;19;19928;-24
2022/09/12 05:31:11;;;;;;;;;;;19.40;99.90;;;;;;4589020;19;19915;-24
2022/09/12 05:32:42;;;;;;;;;;;19.40;99.90;;;;;;4592091;19;20244;-25
2022/09/12 05:34:14;;;;;;;;;;;19.40;99.90;;;;;;4592445;19;19933;-24
2022/09/12 05:35:49;;;;;;;;;;;19.40;99.90;;;;;;4592020;19;20269;-25
2022/09/12 05:37:21;;;;;;;;;;;19.50;99.90;;;;;;4591563;19;20032;-24
2022/09/12 05:38:53;;;;;;;;;;;19.50;99.90;;;;;;4591361;19;20283;-26
2022/09/12 05:40:28;;;;;;;;;;;19.50;99.90;;;;;;4591186;19;19935;-27
2022/09/12 05:41:59;;;;;;;;;;;19.60;99.90;;;;;;4590476;19;19922;-24
2022/09/12 05:43:31;;;;;;;;;;;19.70;99.90;;;;;;4590039;19;19923;-23
2022/09/12 05:45:05;;;;;;;;;;;19.70;99.90;;;;;;4587538;19;21586;-24
2022/09/12 05:46:37;;;;;;;;;;;19.80;99.90;;;;;;4589799;19;19933;-25
2022/09/12 05:48:08;;;;;;;;;;;19.80;99.90;;;;;;4589440;19;19919;-24
2022/09/12 05:49:40;;;;;;;;;;;19.80;99.90;;;;;;4591879;19;19944;-23
2022/09/12 05:51:12;;;;;;;;;;;19.80;99.90;;;;;;4591741;19;19982;-24
2022/09/12 05:52:43;;;;;;;;;;;19.80;99.90;;;;;;4591339;19;19930;-25
2022/09/12 05:54:15;;;;;;;;;;;19.90;99.90;;;;;;4590064;19;19930;-25
2022/09/12 05:55:47;;;;;;;;;;;19.90;99.90;;;;;;4589424;19;19918;-25
2022/09/12 05:57:20;;;;;;;;;;;19.90;99.90;;;;;;4589627;19;20250;-25
2022/09/12 05:58:53;;;;;;;;;;;19.90;99.90;;;;;;4589774;19;19974;-24
2022/09/12 06:00:24;;;;;;;;;;;19.90;99.90;;;;;;4589720;19;19978;-24
2022/09/12 06:01:55;;;;;;;;;;;19.90;99.90;;;;;;4589596;19;19919;-24
2022/09/12 06:03:26;;;;;;;;;;;19.90;99.90;;;;;;4592366;19;19922;-25
2022/09/12 06:04:57;;;;;;;;;;;19.90;99.90;;;;;;4591935;19;19915;-25
2022/09/12 06:06:30;;;;;;;;;;;19.90;99.90;;;;;;4589846;19;19946;-26
2022/09/12 06:08:02;;;;;;;;;;;19.90;99.90;;;;;;4589676;19;19915;-24
2022/09/12 06:09:33;;;;;;;;;;;19.90;99.90;;;;;;4588427;19;20255;-25
2022/09/12 06:11:04;;;;;;;;;;;19.90;99.90;;;;;;4590688;19;19918;-25
2022/09/12 06:12:36;;;;;;;;;;;19.90;99.90;;;;;;4589353;19;19929;-26
2022/09/12 06:14:07;;;;;;;;;;;19.90;99.90;;;;;;4589260;19;20273;-25
2022/09/12 06:15:38;;;;;;;;;;;20.00;99.90;;;;;;4589464;19;19939;-24
2022/09/12 06:17:09;;;;;;;;;;;20.00;99.90;;;;;;4592785;19;19914;-25
2022/09/12 06:18:40;;;;;;;;;;;20.00;99.90;;;;;;4590285;19;19926;-25
2022/09/12 06:20:12;;;;;;;;;;;20.00;99.90;;;;;;4590936;19;20341;-24
2022/09/12 06:21:43;;;;;;;;;;;20.00;99.90;;;;;;4591044;19;20351;-24
2022/09/12 06:23:14;;;;;;;;;;;20.00;99.90;;;;;;4590442;19;20337;-25
2022/09/12 06:24:53;;;;;;;;;;;20.00;99.90;;;;;;4590150;19;20265;-26
2022/09/12 06:26:26;;;;;;;;;;;19.90;99.90;;;;;;4588763;19;19922;-25
2022/09/12 06:27:58;;;;;;;;;;;20.00;99.90;;;;;;4589097;19;20018;-24
2022/09/12 06:29:31;;;;;;;;;;;20.00;99.90;;;;;;4589159;19;19923;-25
2022/09/12 06:31:03;;;;;;;;;;;20.00;99.90;;;;;;4587896;19;20378;-25
2022/09/12 06:32:34;;;;;;;;;;;20.00;99.90;;;;;;4588294;19;19914;-24
2022/09/12 06:34:06;;;;;;;;;;;20.00;99.90;;;;;;4591899;19;19939;-26
2022/09/12 06:35:37;;;;;;;;;;;20.00;99.90;;;;;;4591091;19;19919;-26
2022/09/12 06:37:09;;;;;;;;;;;20.00;99.90;;;;;;4590789;19;19923;-24
2022/09/12 06:38:39;;;;;;;;;;;20.00;99.90;;;;;;4590501;19;19915;-27
2022/09/12 06:40:11;;;;;;;;;;;19.90;99.90;;;;;;4590674;19;19929;-25
2022/09/12 06:41:42;;;;;;;;;;;19.80;99.90;;;;;;4589604;19;19922;-25
2022/09/12 06:43:13;;;;;;;;;;;19.70;99.90;;;;;;4588238;19;19915;-25
2022/09/12 06:44:44;;;;;;;;;;;19.60;99.90;;;;;;4588558;19;19935;-25
2022/09/12 06:46:16;;;;;;;;;;;19.50;99.90;;;;;;4587729;19;19942;-25
2022/09/12 06:47:47;;;;;;;;;;;19.50;99.90;;;;;;4586773;19;19926;-26
2022/09/12 06:49:18;;;;;;;;;;;19.50;99.90;;;;;;4591247;19;19918;-25
2022/09/12 06:50:59;;;;;;;;;;;19.40;99.90;;;;;;4591599;19;19923;-27
2022/09/12 06:52:30;;;;;;;;;;;19.40;99.90;;;;;;4590163;19;19943;-24
2022/09/12 06:54:01;;;;;;;;;;;19.40;99.90;;;;;;4589732;19;19919;-27
2022/09/12 06:55:32;;;;;;;;;;;19.40;99.90;;;;;;4589776;19;19918;-25
2022/09/12 06:57:03;;;;;;;;;;;19.40;99.90;;;;;;4590177;19;19911;-25
2022/09/12 06:58:35;;;;;;;;;;;19.40;99.90;;;;;;4588520;19;20331;-25
2022/09/12 07:00:06;;;;;;;;;;;19.40;99.90;;;;;;4588897;19;19919;-25
2022/09/12 07:01:38;;;;;;;;;;;19.50;99.90;;;;;;4589750;19;20321;-26
2022/09/12 07:03:09;;;;;;;;;;;19.50;99.90;;;;;;4590349;19;19929;-24
2022/09/12 07:04:40;;;;;;;;;;;19.50;99.90;;;;;;4588555;19;19918;-25
2022/09/12 07:06:12;;;;;;;;;;;19.50;99.90;;;;;;4590695;19;20246;-27
2022/09/12 07:07:43;;;;;;;;;;;19.50;99.90;;;;;;4588670;19;19974;-25
2022/09/12 07:09:17;;;;;;;;;;;19.50;99.90;;;;;;4590000;19;19919;-25
2022/09/12 07:10:48;;;;;;;;;;;19.50;99.90;;;;;;4587454;19;19955;-25
2022/09/12 07:12:19;;;;;;;;;;;19.40;99.90;;;;;;4588802;19;19911;-25
2022/09/12 07:13:55;;;;;;;;;;;19.40;99.90;;;;;;4589433;19;19923;-25
2022/09/12 07:15:26;;;;;;;;;;;19.40;99.90;;;;;;4588670;19;20310;-26
2022/09/12 07:16:57;;;;;;;;;;;19.40;99.90;;;;;;4589335;19;19911;-25
2022/09/12 07:18:28;;;;;;;;;;;19.50;99.90;;;;;;4589714;19;19931;-24
2022/09/12 07:20:00;;;;;;;;;;;19.40;99.90;;;;;;4589831;19;20325;-26
2022/09/12 07:21:31;;;;;;;;;;;19.40;99.90;;;;;;4589531;19;19919;-25
2022/09/12 07:23:02;;;;;;;;;;;19.40;99.90;;;;;;4589501;19;20432;-25
2022/09/12 07:24:33;;;;;;;;;;;19.40;99.90;;;;;;4588699;19;19926;-25
2022/09/12 07:26:05;;;;;;;;;;;19.30;99.90;;;;;;4589046;19;19922;-25
2022/09/12 07:27:36;;;;;;;;;;;19.40;99.90;;;;;;4589185;19;20259;-24
2022/09/12 07:29:11;;;;;;;;;;;19.40;99.90;;;;;;4589337;19;20329;-25
2022/09/12 07:30:43;;;;;;;;;;;19.50;99.90;;;;;;4588194;19;19947;-27
2022/09/12 07:32:14;;;;;;;;;;;19.50;99.90;;;;;;4589329;19;19923;-27
2022/09/12 07:33:45;;;;;;;;;;;19.50;99.90;;;;;;4589419;19;19919;-25
2022/09/12 07:35:17;;;;;;;;;;;19.60;99.90;;;;;;4589047;19;19914;-25
2022/09/12 07:36:48;;;;;;;;;;;19.60;99.90;;;;;;4592095;19;19935;-25
2022/09/12 07:38:20;;;;;;;;;;;19.60;99.90;;;;;;4588661;19;19923;-25
2022/09/12 07:39:51;;;;;;;;;;;19.60;99.90;;;;;;4588351;19;19918;-27
2022/09/12 07:41:23;;;;;;;;;;;19.60;99.90;;;;;;4589177;19;19914;-27
2022/09/12 07:42:54;;;;;;;;;;;19.50;99.90;;;;;;4589471;19;19926;-25
2022/09/12 07:44:25;;;;;;;;;;;19.60;99.90;;;;;;4586884;19;19921;-27
2022/09/12 07:45:56;;;;;;;;;;;19.60;99.90;;;;;;4588392;19;19923;-25
2022/09/12 07:47:27;;;;;;;;;;;19.60;99.90;;;;;;4588366;19;19911;-25
2022/09/12 07:49:00;;;;;;;;;;;19.50;99.90;;;;;;4588348;19;19934;-27
2022/09/12 07:50:32;;;;;;;;;;;19.60;99.90;;;;;;4587870;19;19915;-24
2022/09/12 07:52:04;;;;;;;;;;;19.60;99.90;;;;;;4588834;19;20330;-25
2022/09/12 07:53:36;;;;;;;;;;;19.60;99.90;;;;;;4589373;19;20373;-25
2022/09/12 07:55:07;;;;;;;;;;;19.50;99.90;;;;;;4589661;19;19933;-26
2022/09/12 07:56:39;;;;;;;;;;;19.50;99.90;;;;;;4589168;19;19930;-25
2022/09/12 07:58:11;;;;;;;;;;;19.40;99.90;;;;;;4589187;19;20384;-25
2022/09/12 07:59:42;;;;;;;;;;;19.50;99.90;;;;;;4589454;19;19927;-25
2022/09/12 08:01:17;;;;;;;;;;;19.50;99.90;;;;;;4589049;19;19918;-25
2022/09/12 08:02:52;;;;;;;;;;;19.50;99.90;;;;;;4589097;19;19915;-26
2022/09/12 08:04:23;;;;;;;;;;;19.60;99.90;;;;;;4589320;19;19923;-25
2022/09/12 08:05:54;;;;;;;;;;;19.60;99.90;;;;;;4592475;19;19923;-25
2022/09/12 08:07:25;;;;;;;;;;;19.60;99.90;;;;;;4593495;19;20334;-25
2022/09/12 08:08:57;;;;;;;;;;;19.60;99.90;;;;;;4591974;19;19915;-26
2022/09/12 08:10:28;;;;;;;;;;;19.60;99.90;;;;;;4593421;19;19926;-25
2022/09/12 08:12:00;;;;;;;;;;;19.50;99.90;;;;;;4592849;19;19919;-25
2022/09/12 08:13:31;;;;;;;;;;;19.50;99.90;;;;;;4592914;19;20264;-25
2022/09/12 08:15:03;;;;;;;;;;;19.50;99.90;;;;;;4593566;19;19922;-27
2022/09/12 08:16:34;;;;;;;;;;;19.50;99.90;;;;;;4592346;19;20286;-25
2022/09/12 08:18:06;;;;;;;;;;;19.50;99.90;;;;;;4593005;19;20334;-26
2022/09/12 08:19:37;;;;;;;;;;;19.50;99.90;;;;;;4595615;19;19919;-25
2022/09/12 08:21:13;;;;;;;;;;;19.50;99.90;;;;;;4593025;19;20356;-27
2022/09/12 08:22:46;;;;;;;;;;;19.50;99.90;;;;;;4591688;19;19918;-25
2022/09/12 08:24:18;;;;;;;;;;;19.50;99.90;;;;;;4593100;19;19974;-26
2022/09/12 08:25:49;;;;;;;;;;;19.50;99.90;;;;;;4592017;19;19922;-23
2022/09/12 08:27:20;;;;;;;;;;;19.60;99.90;;;;;;4591909;19;19942;-24
2022/09/12 08:28:52;;;;;;;;;;;19.50;99.90;;;;;;4591534;19;19957;-25
2022/09/12 08:30:23;;;;;;;;;;;19.40;99.90;;;;;;4593110;19;19911;-23
2022/09/12 08:31:54;;;;;;;;;;;19.40;99.90;;;;;;4592915;19;19919;-25
2022/09/12 08:33:31;;;;;;;;;;;19.40;99.90;;;;;;4593013;19;19919;-25
2022/09/12 08:35:03;;;;;;;;;;;19.50;99.90;;;;;;4592412;19;19922;-25
2022/09/12 08:36:34;;;;;;;;;;;19.50;99.90;;;;;;4592429;19;19915;-26
2022/09/12 08:38:05;;;;;;;;;;;19.50;99.90;;;;;;4592732;19;19967;-25
2022/09/12 08:39:38;;;;;;;;;;;19.50;99.90;;;;;;4591250;19;20293;-24
2022/09/12 08:41:29;;;;;;;;;;;19.50;99.90;;;;;;4592597;19;19923;-25
2022/09/12 08:43:24;;;;;;;;;;;19.50;99.90;;;;;;4593276;19;19926;-27
2022/09/12 08:45:04;;;;;;;;;;;19.50;99.90;;;;;;4591696;19;19935;-25
2022/09/12 08:46:58;;;;;;;;;;;19.50;99.90;;;;;;4591335;19;20008;-26
2022/09/12 08:48:29;;;;;;;;;;;19.60;99.90;;;;;;4591097;19;19918;-25
2022/09/12 08:50:03;;;;;;;;;;;19.60;99.90;;;;;;4591520;19;19922;-24
2022/09/12 08:51:34;;;;;;;;;;;19.60;99.90;;;;;;4591626;19;19927;-24
2022/09/12 08:53:09;;;;;;;;;;;19.60;99.90;;;;;;4592170;19;20436;-25
2022/09/12 08:54:40;;;;;;;;;;;19.70;99.90;;;;;;4591480;19;20349;-25
2022/09/12 08:56:11;;;;;;;;;;;19.70;99.90;;;;;;4591235;19;19911;-25
2022/09/12 08:57:42;;;;;;;;;;;19.60;99.90;;;;;;4591922;19;19919;-27
2022/09/12 08:59:14;;;;;;;;;;;19.70;99.90;;;;;;4591965;19;19922;-25
2022/09/12 09:01:06;;;;;;;;;;;19.70;99.90;;;;;;4592162;19;19918;-26